This is the latest recevied weather packets stored in our database for station/object N2PUI. If no packets are shown the sender has not sent any weather packets the latest 1 day(s).
| Time | Temp. | Humidity | Pressure | Rain* | Wind** | Luminosity | Snow |
|---|---|---|---|---|---|---|---|
| 1778009470 | 22.78° C | 50% | 1006.1 hPa | 0 mm | 2.24 m/s, 240° | 43 W/m² | - |
| 1778009169 | 23.33° C | 45% | 1005.8 hPa | 0 mm | 1.79 m/s, 226° | 39 W/m² | - |
| 1778008866 | 23.89° C | 43% | 1005.5 hPa | 0 mm | 1.79 m/s, 234° | 61 W/m² | - |
| 1778008564 | 23.89° C | 45% | 1005.5 hPa | 0 mm | 0.45 m/s, 190° | 92 W/m² | - |
| 1778008262 | 23.89° C | 46% | 1005.4 hPa | 0 mm | 0.89 m/s, 169° | 113 W/m² | - |
| 1778007956 | 23.89° C | 44% | 1005.4 hPa | 0 mm | 1.34 m/s, 184° | 135 W/m² | - |
| 1778007652 | 23.89° C | 45% | 1005.3 hPa | 0 mm | 3.13 m/s, 243° | 223 W/m² | - |
| 1778007349 | 23.89° C | 47% | 1005.4 hPa | 0 mm | 1.34 m/s, 226° | 236 W/m² | - |
| 1778007046 | 23.89° C | 46% | 1005.4 hPa | 0 mm | 4.02 m/s, 210° | 272 W/m² | - |
| 1778006742 | 23.89° C | 48% | 1005.1 hPa | 0 mm | 1.79 m/s, 108° | 281 W/m² | - |
| 1778006439 | 24.44° C | 49% | 1005.3 hPa | 0 mm | 2.24 m/s, 220° | 352 W/m² | - |
| 1778006136 | 23.89° C | 48% | 1005.5 hPa | 0 mm | 5.36 m/s, 148° | 452 W/m² | - |
| 1778005833 | 23.89° C | 48% | 1005.8 hPa | 0 mm | 2.24 m/s, 187° | 598 W/m² | - |
| 1778005530 | 23.89° C | 50% | 1005.8 hPa | 0 mm | 4.02 m/s, 167° | 449 W/m² | - |
| 1778005226 | 23.33° C | 51% | 1005.7 hPa | 0 mm | 3.13 m/s, 238° | 413 W/m² | - |
| 1778004923 | 21.11° C | 63% | 1005.9 hPa | 0 mm | 0.89 m/s, 182° | 486 W/m² | - |
| 1778004621 | 20.56° C | 69% | 1005.9 hPa | 0 mm | 0.45 m/s, 191° | 587 W/m² | - |
| 1778004316 | 19.44° C | 74% | 1006 hPa | 0 mm | 0.45 m/s, 196° | 636 W/m² | - |
| 1778004020 | 18.89° C | 75% | 1006.7 hPa | 0 mm | 0.45 m/s, 185° | 532 W/m² | - |
| 1778003709 | 18.89° C | 78% | 1006.6 hPa | 0 mm | 0.45 m/s, 177° | 452 W/m² | - |
| 1778003406 | 18.33° C | 76% | 1006.8 hPa | 1.78 mm | 1.79 m/s, 222° | 414 W/m² | - |
| 1778003103 | 18.33° C | 75% | 1007 hPa | 1.78 mm | 0 m/s | 381 W/m² | - |
| 1778002799 | 18.89° C | 71% | 1007.2 hPa | 0 mm | 0.45 m/s, 174° | 331 W/m² | - |
| 1778002495 | 21.67° C | 64% | 1006.8 hPa | 0 mm | 4.92 m/s, 220° | 35 W/m² | - |
| 1778002193 | 22.78° C | 55% | 1006.6 hPa | 0 mm | 0.45 m/s, 163° | 48 W/m² | - |
* Rain latest hour (hover to see other rain measurements)
** Current wind speed in m/s (hover to see current wind gust speed)